13:20
Airports
History
Links
Donate
Help keep this website running!
PayPal
Bitcoin
This page is community maintained. The information is intended for PC simulator navigation or reference.
Always use approved charts for navigation.
MT65
Morgan Ranche
Morgan Ranche (MT65)
Montana, United States (59311)
4
Lat/Lng:45° 1' 19.96" N / 104° 4' 31.78" W
45.02221 / -104.075494
Elevation:3410'ft / 1039mMSL
ID / ICAO:MT65
Runways:1
Longest:09-27
Grass 917m / 3,010ft
Nearby Weather13:15 GMT 2018-01-20
Nearby weather at KSPF, Black Hills-clyde Ice Field located 40.0 nautical miles from MT65
Altimeter: 29.88
Visibility: 5.0 statute miles
Wind: 7 knots (from 270°)
Temp: 0°c / 32°f
Humidity: %

METAR: KSPF 201315Z AUTO 27007KT 5SM BR 00/M02 A2988 RMK AO2

(Powered by phpweather)
Nearby VORs <50NM
Nearby NDBs
Runway 09 / 27
Dimensions:917.3 x 91.4m 3010' x 300'ft
Surface:Grass
Runway 09 [A]Runway 27 [B]
Heading:102°TH 282°TH
Lat:
Lng:
45° 1' 23.03"N
104° 4' 52.28"W
45° 1' 16.88"N
104° 4' 11.28"W
User Notes and Comments
45° 1' 19.96" N / 104° 4' 31.78" W
Distance To
Airport ID:
Nearby Airports
(U) Belle Fourche Muni 22.5 NM
KEFC SSE 152°
(R) Sky Ranch For Boys 33.2 NM
SD33 N
(U) Hulett Muni 34.6 NM
W43 SW 224°
(R) Lanning Ranch 36.6 NM
MT50 W 277°
4 Camp Crook Municipal 37.9 NM
31U N
(U) Black Hills-clyde Ice Field 40.0 NM
KSPF ( WX ) SSE 159°
(R) Ipy Ranch 40.1 NM
WY14 SW 228°
VFR Chart
Flight Planning at SkyVector.com